sensor_id;sensor_type;location;lat;lon;timestamp;pressure;altitude;pressure_sealevel;temperature;humidity
73860;BME280;62197;51.632;13.700;2023-02-15T00:01:07;101818.66;;;-2.98;100.00
73860;BME280;62197;51.632;13.700;2023-02-15T00:03:33;101816.47;;;-2.93;100.00
73860;BME280;62197;51.632;13.700;2023-02-15T00:05:58;101817.56;;;-2.95;100.00
73860;BME280;62197;51.632;13.700;2023-02-15T00:08:23;101815.22;;;-3.00;100.00
73860;BME280;62197;51.632;13.700;2023-02-15T00:10:49;101817.06;;;-3.00;100.00
73860;BME280;62197;51.632;13.700;2023-02-15T00:13:14;101812.41;;;-2.98;100.00
73860;BME280;62197;51.632;13.700;2023-02-15T00:15:39;101817.56;;;-2.95;100.00
73860;BME280;62197;51.632;13.700;2023-02-15T00:18:05;101802.22;;;-2.95;100.00
73860;BME280;62197;51.632;13.700;2023-02-15T00:20:30;101799.88;;;-2.99;100.00
73860;BME280;62197;51.632;13.700;2023-02-15T00:22:55;101799.38;;;-3.04;100.00
73860;BME280;62197;51.632;13.700;2023-02-15T00:25:21;101797.91;;;-2.97;100.00
73860;BME280;62197;51.632;13.700;2023-02-15T00:27:46;101791.03;;;-3.01;100.00
73860;BME280;62197;51.632;13.700;2023-02-15T00:30:12;101790.16;;;-3.02;100.00
73860;BME280;62197;51.632;13.700;2023-02-15T00:32:37;101776.91;;;-3.05;100.00
73860;BME280;62197;51.632;13.700;2023-02-15T00:35:02;101779.34;;;-3.02;100.00
73860;BME280;62197;51.632;13.700;2023-02-15T00:37:28;101773.34;;;-2.94;100.00
73860;BME280;62197;51.632;13.700;2023-02-15T00:39:53;101769.28;;;-3.00;100.00
73860;BME280;62197;51.632;13.700;2023-02-15T00:42:18;101776.78;;;-3.03;100.00
73860;BME280;62197;51.632;13.700;2023-02-15T00:44:44;101772.88;;;-2.99;100.00
73860;BME280;62197;51.632;13.700;2023-02-15T00:47:09;101767.94;;;-3.05;100.00
73860;BME280;62197;51.632;13.700;2023-02-15T00:49:34;101777.75;;;-3.15;100.00
73860;BME280;62197;51.632;13.700;2023-02-15T00:52:00;101778.03;;;-3.18;100.00
73860;BME280;62197;51.632;13.700;2023-02-15T00:54:25;101768.94;;;-3.17;100.00
73860;BME280;62197;51.632;13.700;2023-02-15T00:56:50;101776.78;;;-3.14;100.00
73860;BME280;62197;51.632;13.700;2023-02-15T00:59:16;101770.66;;;-3.16;100.00
73860;BME280;62197;51.632;13.700;2023-02-15T01:01:41;101771.16;;;-3.22;100.00
73860;BME280;62197;51.632;13.700;2023-02-15T01:04:06;101771.88;;;-3.31;100.00
73860;BME280;62197;51.632;13.700;2023-02-15T01:06:32;101761.31;;;-3.34;100.00
73860;BME280;62197;51.632;13.700;2023-02-15T01:08:57;101773.84;;;-3.33;100.00
73860;BME280;62197;51.632;13.700;2023-02-15T01:11:23;101771.38;;;-3.36;100.00
73860;BME280;62197;51.632;13.700;2023-02-15T01:13:53;101776.03;;;-3.38;100.00
73860;BME280;62197;51.632;13.700;2023-02-15T01:16:18;101759.84;;;-3.38;100.00
73860;BME280;62197;51.632;13.700;2023-02-15T01:18:44;101764.50;;;-3.40;100.00
73860;BME280;62197;51.632;13.700;2023-02-15T01:21:11;101762.28;;;-3.46;100.00
73860;BME280;62197;51.632;13.700;2023-02-15T01:23:39;101749.66;;;-3.46;100.00
73860;BME280;62197;51.632;13.700;2023-02-15T01:26:04;101754.44;;;-3.38;100.00
73860;BME280;62197;51.632;13.700;2023-02-15T01:28:30;101752.00;;;-3.41;100.00
73860;BME280;62197;51.632;13.700;2023-02-15T01:30:56;101735.53;;;-3.49;100.00
73860;BME280;62197;51.632;13.700;2023-02-15T01:33:21;101734.06;;;-3.53;100.00
73860;BME280;62197;51.632;13.700;2023-02-15T01:35:46;101741.31;;;-3.43;100.00
73860;BME280;62197;51.632;13.700;2023-02-15T01:38:13;101745.25;;;-3.47;100.00
73860;BME280;62197;51.632;13.700;2023-02-15T01:40:38;101735.66;;;-3.40;100.00
73860;BME280;62197;51.632;13.700;2023-02-15T01:43:10;101737.03;;;-3.34;100.00
73860;BME280;62197;51.632;13.700;2023-02-15T01:45:36;101739.84;;;-3.25;100.00
73860;BME280;62197;51.632;13.700;2023-02-15T01:48:19;101735.06;;;-3.21;100.00
73860;BME280;62197;51.632;13.700;2023-02-15T01:50:50;101724.78;;;-3.27;100.00
73860;BME280;62197;51.632;13.700;2023-02-15T01:53:27;101724.88;;;-3.40;100.00
73860;BME280;62197;51.632;13.700;2023-02-15T01:56:02;101723.53;;;-3.45;100.00
73860;BME280;62197;51.632;13.700;2023-02-15T01:58:32;101713.97;;;-3.49;100.00
73860;BME280;62197;51.632;13.700;2023-02-15T02:01:00;101715.78;;;-3.50;100.00
73860;BME280;62197;51.632;13.700;2023-02-15T02:03:35;101722.44;;;-3.43;100.00
73860;BME280;62197;51.632;13.700;2023-02-15T02:06:03;101714.22;;;-3.52;100.00
73860;BME280;62197;51.632;13.700;2023-02-15T02:08:28;101709.78;;;-3.64;100.00
73860;BME280;62197;51.632;13.700;2023-02-15T02:10:54;101705.47;;;-3.67;100.00
73860;BME280;62197;51.632;13.700;2023-02-15T02:13:19;101710.88;;;-3.67;100.00
73860;BME280;62197;51.632;13.700;2023-02-15T02:15:57;101706.81;;;-3.73;100.00
73860;BME280;62197;51.632;13.700;2023-02-15T02:33:03;101706.34;;;-3.67;100.00
73860;BME280;62197;51.632;13.700;2023-02-15T02:35:48;101706.09;;;-3.75;100.00
73860;BME280;62197;51.632;13.700;2023-02-15T02:38:29;101703.84;;;-3.81;100.00
73860;BME280;62197;51.632;13.700;2023-02-15T02:41:10;101694.69;;;-3.78;100.00
73860;BME280;62197;51.632;13.700;2023-02-15T02:43:48;101705.59;;;-3.80;100.00
73860;BME280;62197;51.632;13.700;2023-02-15T02:46:26;101694.06;;;-3.82;100.00
73860;BME280;62197;51.632;13.700;2023-02-15T02:48:54;101695.78;;;-3.81;100.00
73860;BME280;62197;51.632;13.700;2023-02-15T02:51:20;101695.03;;;-3.83;100.00
73860;BME280;62197;51.632;13.700;2023-02-15T02:53:53;101703.50;;;-3.87;100.00
73860;BME280;62197;51.632;13.700;2023-02-15T02:56:28;101696.97;;;-3.85;100.00
73860;BME280;62197;51.632;13.700;2023-02-15T02:59:19;101708.97;;;-3.89;100.00
73860;BME280;62197;51.632;13.700;2023-02-15T03:01:57;101695.63;;;-3.90;100.00
73860;BME280;62197;51.632;13.700;2023-02-15T03:04:28;101700.28;;;-3.92;100.00
73860;BME280;62197;51.632;13.700;2023-02-15T03:07:02;101673.66;;;-3.97;100.00
73860;BME280;62197;51.632;13.700;2023-02-15T03:09:36;101682.28;;;-3.92;100.00
73860;BME280;62197;51.632;13.700;2023-02-15T03:12:11;101681.75;;;-3.97;100.00
73860;BME280;62197;51.632;13.700;2023-02-15T03:14:40;101679.09;;;-3.86;100.00
73860;BME280;62197;51.632;13.700;2023-02-15T03:17:07;101686.31;;;-3.86;100.00
73860;BME280;62197;51.632;13.700;2023-02-15T03:19:35;101687.19;;;-3.86;100.00
73860;BME280;62197;51.632;13.700;2023-02-15T03:22:15;101679.84;;;-3.84;100.00
73860;BME280;62197;51.632;13.700;2023-02-15T03:25:02;101677.50;;;-3.77;100.00
73860;BME280;62197;51.632;13.700;2023-02-15T03:27:47;101680.09;;;-3.76;100.00
73860;BME280;62197;51.632;13.700;2023-02-15T03:30:15;101678.75;;;-3.70;100.00
73860;BME280;62197;51.632;13.700;2023-02-15T03:32:43;101669.19;;;-3.74;100.00
73860;BME280;62197;51.632;13.700;2023-02-15T03:35:09;101675.19;;;-3.82;100.00
73860;BME280;62197;51.632;13.700;2023-02-15T03:37:39;101663.75;;;-3.85;100.00
73860;BME280;62197;51.632;13.700;2023-02-15T03:40:12;101672.22;;;-3.79;100.00
73860;BME280;62197;51.632;13.700;2023-02-15T03:45:40;101664.75;;;-3.97;100.00
73860;BME280;62197;51.632;13.700;2023-02-15T03:48:21;101668.03;;;-4.05;100.00
73860;BME280;62197;51.632;13.700;2023-02-15T03:50:50;101658.94;;;-4.15;100.00
73860;BME280;62197;51.632;13.700;2023-02-15T03:53:35;101652.28;;;-4.22;100.00
73860;BME280;62197;51.632;13.700;2023-02-15T03:56:01;101665.28;;;-4.16;100.00
73860;BME280;62197;51.632;13.700;2023-02-15T03:58:27;101662.88;;;-4.08;100.00
73860;BME280;62197;51.632;13.700;2023-02-15T04:01:22;101660.44;;;-4.00;100.00
73860;BME280;62197;51.632;13.700;2023-02-15T04:04:24;101647.94;;;-4.01;100.00
73860;BME280;62197;51.632;13.700;2023-02-15T04:06:50;101647.44;;;-3.95;100.00
73860;BME280;62197;51.632;13.700;2023-02-15T04:09:15;101659.84;;;-3.81;100.00
73860;BME280;62197;51.632;13.700;2023-02-15T04:11:59;101655.09;;;-3.78;100.00
73860;BME280;62197;51.632;13.700;2023-02-15T04:14:24;101656.31;;;-3.82;100.00
73860;BME280;62197;51.632;13.700;2023-02-15T04:17:08;101634.22;;;-3.87;100.00
73860;BME280;62197;51.632;13.700;2023-02-15T04:19:34;101641.34;;;-3.86;100.00
73860;BME280;62197;51.632;13.700;2023-02-15T04:22:18;101651.13;;;-3.85;100.00
73860;BME280;62197;51.632;13.700;2023-02-15T04:25:02;101650.28;;;-3.96;100.00
73860;BME280;62197;51.632;13.700;2023-02-15T04:27:44;101649.78;;;-3.90;100.00
73860;BME280;62197;51.632;13.700;2023-02-15T04:30:11;101649.44;;;-3.75;100.00
73860;BME280;62197;51.632;13.700;2023-02-15T04:32:37;101644.56;;;-3.58;100.00
73860;BME280;62197;51.632;13.700;2023-02-15T04:35:04;101640.84;;;-3.57;100.00
73860;BME280;62197;51.632;13.700;2023-02-15T04:37:31;101634.47;;;-3.68;100.00
73860;BME280;62197;51.632;13.700;2023-02-15T04:39:56;101638.16;;;-3.69;100.00
73860;BME280;62197;51.632;13.700;2023-02-15T04:42:24;101636.22;;;-3.78;100.00
73860;BME280;62197;51.632;13.700;2023-02-15T04:44:50;101632.03;;;-3.82;100.00
73860;BME280;62197;51.632;13.700;2023-02-15T04:47:15;101621.72;;;-3.88;100.00
73860;BME280;62197;51.632;13.700;2023-02-15T04:49:40;101620.13;;;-3.90;100.00
73860;BME280;62197;51.632;13.700;2023-02-15T04:52:06;101629.56;;;-3.96;100.00
73860;BME280;62197;51.632;13.700;2023-02-15T04:54:31;101619.25;;;-4.02;100.00
73860;BME280;62197;51.632;13.700;2023-02-15T04:56:56;101600.00;;;-4.19;100.00
73860;BME280;62197;51.632;13.700;2023-02-15T04:59:22;101624.41;;;-3.99;100.00
73860;BME280;62197;51.632;13.700;2023-02-15T05:01:47;101620.38;;;-3.82;100.00
73860;BME280;62197;51.632;13.700;2023-02-15T05:04:12;101612.66;;;-3.64;100.00
73860;BME280;62197;51.632;13.700;2023-02-15T05:06:38;101620.03;;;-3.67;100.00
73860;BME280;62197;51.632;13.700;2023-02-15T05:09:03;101591.25;;;-3.12;100.00
73860;BME280;62197;51.632;13.700;2023-02-15T05:11:29;101600.00;;;-2.36;100.00
73860;BME280;62197;51.632;13.700;2023-02-15T05:13:54;101590.75;;;-1.62;100.00
73860;BME280;62197;51.632;13.700;2023-02-15T05:16:19;101612.91;;;-1.47;100.00
73860;BME280;62197;51.632;13.700;2023-02-15T05:18:45;101603.22;;;-2.01;100.00
73860;BME280;62197;51.632;13.700;2023-02-15T05:21:10;101575.50;;;-1.72;100.00
73860;BME280;62197;51.632;13.700;2023-02-15T05:23:35;101585.31;;;-2.22;100.00
73860;BME280;62197;51.632;13.700;2023-02-15T05:26:02;101584.97;;;-2.70;100.00
73860;BME280;62197;51.632;13.700;2023-02-15T05:28:47;101597.72;;;-3.04;100.00
73860;BME280;62197;51.632;13.700;2023-02-15T05:31:13;101605.63;;;-2.80;100.00
73860;BME280;62197;51.632;13.700;2023-02-15T05:33:39;101600.56;;;-2.73;100.00
73860;BME280;62197;51.632;13.700;2023-02-15T05:36:05;101599.41;;;-2.60;100.00
73860;BME280;62197;51.632;13.700;2023-02-15T05:38:31;101602.00;;;-3.01;100.00
73860;BME280;62197;51.632;13.700;2023-02-15T05:40:56;101607.22;;;-3.20;100.00
73860;BME280;62197;51.632;13.700;2023-02-15T05:43:22;101607.94;;;-3.18;100.00
73860;BME280;62197;51.632;13.700;2023-02-15T05:45:53;101589.34;;;-3.43;100.00
73860;BME280;62197;51.632;13.700;2023-02-15T05:48:21;101595.72;;;-3.55;100.00
73860;BME280;62197;51.632;13.700;2023-02-15T05:50:46;101597.41;;;-3.32;100.00
73860;BME280;62197;51.632;13.700;2023-02-15T05:53:21;101590.63;;;-3.05;100.00
73860;BME280;62197;51.632;13.700;2023-02-15T05:55:46;101582.41;;;-3.14;100.00
73860;BME280;62197;51.632;13.700;2023-02-15T05:58:12;101588.13;;;-3.39;100.00
73860;BME280;62197;51.632;13.700;2023-02-15T06:00:37;101584.34;;;-3.59;100.00
73860;BME280;62197;51.632;13.700;2023-02-15T06:03:02;101581.53;;;-3.69;100.00
73860;BME280;62197;51.632;13.700;2023-02-15T06:05:28;101572.69;;;-3.59;100.00
73860;BME280;62197;51.632;13.700;2023-02-15T06:07:53;101581.22;;;-3.32;100.00
73860;BME280;62197;51.632;13.700;2023-02-15T06:10:18;101605.88;;;-3.26;100.00
73860;BME280;62197;51.632;13.700;2023-02-15T06:12:44;101583.72;;;-3.51;100.00
73860;BME280;62197;51.632;13.700;2023-02-15T06:15:10;101594.03;;;-3.56;100.00
73860;BME280;62197;51.632;13.700;2023-02-15T06:17:35;101580.19;;;-3.74;100.00
73860;BME280;62197;51.632;13.700;2023-02-15T06:20:00;101592.06;;;-3.54;100.00
73860;BME280;62197;51.632;13.700;2023-02-15T06:22:26;101611.06;;;-3.45;100.00
73860;BME280;62197;51.632;13.700;2023-02-15T06:24:51;101607.13;;;-3.52;100.00
73860;BME280;62197;51.632;13.700;2023-02-15T06:27:16;101597.97;;;-3.60;100.00
73860;BME280;62197;51.632;13.700;2023-02-15T06:29:42;101606.06;;;-3.60;100.00
73860;BME280;62197;51.632;13.700;2023-02-15T06:32:07;101603.22;;;-3.59;100.00
73860;BME280;62197;51.632;13.700;2023-02-15T06:34:33;101607.53;;;-3.56;100.00
73860;BME280;62197;51.632;13.700;2023-02-15T06:36:58;101599.19;;;-3.64;100.00
73860;BME280;62197;51.632;13.700;2023-02-15T06:39:23;101599.66;;;-3.59;100.00
73860;BME280;62197;51.632;13.700;2023-02-15T06:41:49;101602.59;;;-3.51;100.00
73860;BME280;62197;51.632;13.700;2023-02-15T06:44:14;101597.47;;;-3.54;100.00
73860;BME280;62197;51.632;13.700;2023-02-15T06:46:39;101589.09;;;-3.51;100.00
73860;BME280;62197;51.632;13.700;2023-02-15T06:49:05;101593.00;;;-3.44;100.00
73860;BME280;62197;51.632;13.700;2023-02-15T06:51:30;101598.03;;;-3.29;100.00
73860;BME280;62197;51.632;13.700;2023-02-15T06:53:55;101577.78;;;-3.34;100.00
73860;BME280;62197;51.632;13.700;2023-02-15T06:56:21;101587.56;;;-3.11;100.00
73860;BME280;62197;51.632;13.700;2023-02-15T06:58:46;101593.63;;;-2.87;100.00
73860;BME280;62197;51.632;13.700;2023-02-15T07:01:14;101583.38;;;-2.72;100.00
73860;BME280;62197;51.632;13.700;2023-02-15T07:03:39;101588.09;;;-2.54;100.00
73860;BME280;62197;51.632;13.700;2023-02-15T07:06:04;101580.63;;;-2.41;100.00
73860;BME280;62197;51.632;13.700;2023-02-15T07:08:33;101589.25;;;-2.26;100.00
73860;BME280;62197;51.632;13.700;2023-02-15T07:10:59;101581.28;;;-2.28;100.00
73860;BME280;62197;51.632;13.700;2023-02-15T07:13:45;101584.63;;;-2.15;100.00
73860;BME280;62197;51.632;13.700;2023-02-15T07:16:10;101580.88;;;-2.03;100.00
73860;BME280;62197;51.632;13.700;2023-02-15T07:18:36;101570.09;;;-1.93;100.00
73860;BME280;62197;51.632;13.700;2023-02-15T07:21:01;101568.16;;;-1.82;100.00
73860;BME280;62197;51.632;13.700;2023-02-15T07:23:27;101569.06;;;-1.71;100.00
73860;BME280;62197;51.632;13.700;2023-02-15T07:25:59;101563.66;;;-1.71;100.00
73860;BME280;62197;51.632;13.700;2023-02-15T07:28:25;101567.97;;;-1.59;100.00
73860;BME280;62197;51.632;13.700;2023-02-15T07:30:51;101565.16;;;-1.48;100.00
73860;BME280;62197;51.632;13.700;2023-02-15T07:33:16;101561.50;;;-1.38;100.00
73860;BME280;62197;51.632;13.700;2023-02-15T07:35:53;101569.81;;;-1.20;100.00
73860;BME280;62197;51.632;13.700;2023-02-15T07:38:19;101575.38;;;-1.12;100.00
73860;BME280;62197;51.632;13.700;2023-02-15T07:40:45;101570.41;;;-1.07;100.00
73860;BME280;62197;51.632;13.700;2023-02-15T07:43:11;101564.69;;;-0.95;100.00
73860;BME280;62197;51.632;13.700;2023-02-15T07:45:36;101568.00;;;-0.81;100.00
73860;BME280;62197;51.632;13.700;2023-02-15T07:48:02;101561.59;;;0.04;100.00
73860;BME280;62197;51.632;13.700;2023-02-15T07:50:28;101555.38;;;-0.06;100.00
73860;BME280;62197;51.632;13.700;2023-02-15T07:52:53;101553.94;;;1.08;100.00
73860;BME280;62197;51.632;13.700;2023-02-15T07:55:19;101548.09;;;1.03;100.00
73860;BME280;62197;51.632;13.700;2023-02-15T07:57:46;101550.22;;;1.27;100.00
73860;BME280;62197;51.632;13.700;2023-02-15T08:00:13;101544.66;;;1.71;100.00
73860;BME280;62197;51.632;13.700;2023-02-15T08:02:39;101534.72;;;1.88;100.00
73860;BME280;62197;51.632;13.700;2023-02-15T08:05:05;101537.25;;;2.41;100.00
73860;BME280;62197;51.632;13.700;2023-02-15T08:07:30;101543.84;;;3.38;100.00
73860;BME280;62197;51.632;13.700;2023-02-15T08:09:55;101542.25;;;3.03;100.00
73860;BME280;62197;51.632;13.700;2023-02-15T08:12:21;101539.25;;;3.79;100.00
73860;BME280;62197;51.632;13.700;2023-02-15T08:14:46;101540.59;;;3.91;100.00
73860;BME280;62197;51.632;13.700;2023-02-15T08:17:11;101542.63;;;4.05;100.00
73860;BME280;62197;51.632;13.700;2023-02-15T08:19:37;101537.00;;;3.98;100.00
73860;BME280;62197;51.632;13.700;2023-02-15T08:22:05;101536.00;;;3.59;100.00
73860;BME280;62197;51.632;13.700;2023-02-15T08:24:33;101535.50;;;3.63;100.00
73860;BME280;62197;51.632;13.700;2023-02-15T08:26:59;101531.41;;;3.51;100.00
73860;BME280;62197;51.632;13.700;2023-02-15T08:29:27;101532.75;;;2.65;100.00
73860;BME280;62197;51.632;13.700;2023-02-15T08:31:54;101524.16;;;2.11;100.00
73860;BME280;62197;51.632;13.700;2023-02-15T08:34:20;101532.94;;;3.54;100.00
73860;BME280;62197;51.632;13.700;2023-02-15T08:36:45;101526.72;;;2.96;100.00
73860;BME280;62197;51.632;13.700;2023-02-15T08:39:12;101526.34;;;2.74;100.00
73860;BME280;62197;51.632;13.700;2023-02-15T08:41:38;101515.56;;;2.65;100.00
73860;BME280;62197;51.632;13.700;2023-02-15T08:44:07;101525.31;;;2.34;100.00
73860;BME280;62197;51.632;13.700;2023-02-15T08:46:35;101517.28;;;2.32;100.00
73860;BME280;62197;51.632;13.700;2023-02-15T08:49:01;101511.09;;;2.56;100.00
73860;BME280;62197;51.632;13.700;2023-02-15T08:51:29;101508.66;;;2.11;100.00
73860;BME280;62197;51.632;13.700;2023-02-15T08:53:57;101507.19;;;2.25;100.00
73860;BME280;62197;51.632;13.700;2023-02-15T08:56:26;101505.06;;;2.03;100.00
73860;BME280;62197;51.632;13.700;2023-02-15T08:58:55;101493.66;;;2.07;100.00
73860;BME280;62197;51.632;13.700;2023-02-15T09:01:26;101499.56;;;1.95;100.00
73860;BME280;62197;51.632;13.700;2023-02-15T09:03:56;101486.41;;;2.16;100.00
73860;BME280;62197;51.632;13.700;2023-02-15T09:06:22;101493.06;;;2.21;100.00
73860;BME280;62197;51.632;13.700;2023-02-15T09:08:48;101493.59;;;2.25;100.00
73860;BME280;62197;51.632;13.700;2023-02-15T09:11:16;101479.91;;;2.50;100.00
73860;BME280;62197;51.632;13.700;2023-02-15T09:13:48;101482.03;;;2.72;100.00
73860;BME280;62197;51.632;13.700;2023-02-15T09:16:14;101469.91;;;2.59;100.00
73860;BME280;62197;51.632;13.700;2023-02-15T09:18:42;101491.38;;;2.70;100.00
73860;BME280;62197;51.632;13.700;2023-02-15T09:21:15;101488.19;;;2.83;100.00
73860;BME280;62197;51.632;13.700;2023-02-15T09:23:42;101478.00;;;3.09;100.00
73860;BME280;62197;51.632;13.700;2023-02-15T09:26:13;101485.69;;;3.13;100.00
73860;BME280;62197;51.632;13.700;2023-02-15T09:28:39;101483.28;;;2.94;100.00
73860;BME280;62197;51.632;13.700;2023-02-15T09:31:14;101494.00;;;2.96;100.00
73860;BME280;62197;51.632;13.700;2023-02-15T09:33:42;101479.19;;;3.14;100.00
73860;BME280;62197;51.632;13.700;2023-02-15T09:36:16;101480.75;;;3.17;100.00
73860;BME280;62197;51.632;13.700;2023-02-15T09:38:42;101476.81;;;3.27;100.00
73860;BME280;62197;51.632;13.700;2023-02-15T09:50:11;101477.44;;;3.94;100.00
73860;BME280;62197;51.632;13.700;2023-02-15T09:52:48;101478.78;;;4.06;100.00
73860;BME280;62197;51.632;13.700;2023-02-15T10:00:59;101480.59;;;4.68;100.00
73860;BME280;62197;51.632;13.700;2023-02-15T10:03:49;101478.59;;;4.54;100.00
73860;BME280;62197;51.632;13.700;2023-02-15T10:06:32;101475.56;;;4.49;100.00
73860;BME280;62197;51.632;13.700;2023-02-15T10:15:01;101457.75;;;4.84;100.00
73860;BME280;62197;51.632;13.700;2023-02-15T10:23:59;101457.66;;;5.60;97.61
73860;BME280;62197;51.632;13.700;2023-02-15T10:26:19;101443.88;;;5.53;99.73
73860;BME280;62197;51.632;13.700;2023-02-15T10:28:46;101438.03;;;5.56;99.19
73860;BME280;62197;51.632;13.700;2023-02-15T10:31:23;101432.66;;;6.00;96.23
73860;BME280;62197;51.632;13.700;2023-02-15T10:36:30;101437.06;;;6.80;92.69
73860;BME280;62197;51.632;13.700;2023-02-15T10:39:18;101437.63;;;7.11;90.37
73860;BME280;62197;51.632;13.700;2023-02-15T10:42:09;101437.63;;;7.32;89.51
73860;BME280;62197;51.632;13.700;2023-02-15T10:47:52;101428.13;;;7.84;84.10
73860;BME280;62197;51.632;13.700;2023-02-15T10:50:27;101426.69;;;7.67;82.00
73860;BME280;62197;51.632;13.700;2023-02-15T10:56:03;101418.31;;;7.75;81.25
73860;BME280;62197;51.632;13.700;2023-02-15T10:58:38;101417.13;;;7.84;83.98
73860;BME280;62197;51.632;13.700;2023-02-15T11:01:34;101404.78;;;8.01;81.68
73860;BME280;62197;51.632;13.700;2023-02-15T11:06:37;101401.88;;;8.09;80.07
73860;BME280;62197;51.632;13.700;2023-02-15T11:09:09;101399.09;;;8.43;78.34
73860;BME280;62197;51.632;13.700;2023-02-15T11:11:37;101396.47;;;8.76;77.33
73860;BME280;62197;51.632;13.700;2023-02-15T11:16:44;101390.75;;;10.21;72.81
73860;BME280;62197;51.632;13.700;2023-02-15T11:19:16;101386.03;;;10.85;67.75
73860;BME280;62197;51.632;13.700;2023-02-15T11:21:47;101389.47;;;11.12;65.60
73860;BME280;62197;51.632;13.700;2023-02-15T11:24:18;101377.09;;;11.95;64.43
73860;BME280;62197;51.632;13.700;2023-02-15T11:26:47;101389.63;;;11.98;62.90
73860;BME280;62197;51.632;13.700;2023-02-15T11:32:02;101377.50;;;12.83;59.05
73860;BME280;62197;51.632;13.700;2023-02-15T11:34:32;101376.00;;;12.50;58.89
73860;BME280;62197;51.632;13.700;2023-02-15T11:37:05;101374.41;;;12.91;58.74
73860;BME280;62197;51.632;13.700;2023-02-15T11:39:31;101370.44;;;12.87;58.12
73860;BME280;62197;51.632;13.700;2023-02-15T11:42:07;101369.75;;;13.03;58.69
73860;BME280;62197;51.632;13.700;2023-02-15T11:44:45;101371.06;;;13.30;56.39
73860;BME280;62197;51.632;13.700;2023-02-15T11:47:14;101362.59;;;13.13;56.07
73860;BME280;62197;51.632;13.700;2023-02-15T11:49:40;101362.34;;;12.85;56.49
73860;BME280;62197;51.632;13.700;2023-02-15T11:52:07;101355.69;;;13.92;55.49
73860;BME280;62197;51.632;13.700;2023-02-15T11:54:40;101355.91;;;14.02;51.41
73860;BME280;62197;51.632;13.700;2023-02-15T11:57:20;101350.09;;;14.50;53.02
73860;BME280;62197;51.632;13.700;2023-02-15T12:00:05;101350.00;;;15.01;49.86
73860;BME280;62197;51.632;13.700;2023-02-15T12:02:37;101343.56;;;14.84;49.63
73860;BME280;62197;51.632;13.700;2023-02-15T12:05:07;101342.09;;;14.53;49.14
73860;BME280;62197;51.632;13.700;2023-02-15T12:07:46;101338.09;;;14.89;49.00
73860;BME280;62197;51.632;13.700;2023-02-15T12:10:25;101345.53;;;15.00;47.28
73860;BME280;62197;51.632;13.700;2023-02-15T12:15:37;101334.28;;;15.23;48.11
73860;BME280;62197;51.632;13.700;2023-02-15T12:18:03;101329.41;;;15.13;45.94
73860;BME280;62197;51.632;13.700;2023-02-15T12:20:32;101325.69;;;15.41;46.05
73860;BME280;62197;51.632;13.700;2023-02-15T12:23:13;101323.31;;;15.33;45.56
73860;BME280;62197;51.632;13.700;2023-02-15T12:25:48;101325.72;;;15.58;46.57
73860;BME280;62197;51.632;13.700;2023-02-15T12:28:25;101334.47;;;15.66;45.11
73860;BME280;62197;51.632;13.700;2023-02-15T12:30:53;101322.47;;;16.20;43.78
73860;BME280;62197;51.632;13.700;2023-02-15T12:33:41;101333.00;;;16.35;44.25
73860;BME280;62197;51.632;13.700;2023-02-15T12:38:41;101324.00;;;16.98;41.48
73860;BME280;62197;51.632;13.700;2023-02-15T12:41:24;101325.44;;;17.00;43.18
73860;BME280;62197;51.632;13.700;2023-02-15T12:44:05;101326.28;;;17.01;43.57
73860;BME280;62197;51.632;13.700;2023-02-15T12:46:31;101319.00;;;17.53;40.29
73860;BME280;62197;51.632;13.700;2023-02-15T12:49:17;101318.78;;;18.07;39.15
73860;BME280;62197;51.632;13.700;2023-02-15T12:51:45;101319.88;;;18.00;38.41
73860;BME280;62197;51.632;13.700;2023-02-15T12:54:36;101306.72;;;18.43;38.08
73860;BME280;62197;51.632;13.700;2023-02-15T12:59:47;101312.81;;;18.40;37.28
73860;BME280;62197;51.632;13.700;2023-02-15T13:02:25;101310.84;;;19.12;36.03
73860;BME280;62197;51.632;13.700;2023-02-15T13:04:52;101316.34;;;18.20;35.92
73860;BME280;62197;51.632;13.700;2023-02-15T13:07:18;101308.84;;;18.26;36.89
73860;BME280;62197;51.632;13.700;2023-02-15T13:09:44;101310.13;;;18.55;36.62
73860;BME280;62197;51.632;13.700;2023-02-15T13:12:20;101319.34;;;18.50;35.60
73860;BME280;62197;51.632;13.700;2023-02-15T13:14:47;101308.88;;;19.03;34.43
73860;BME280;62197;51.632;13.700;2023-02-15T13:17:16;101304.13;;;19.23;33.43
73860;BME280;62197;51.632;13.700;2023-02-15T13:19:49;101305.41;;;18.65;34.96
73860;BME280;62197;51.632;13.700;2023-02-15T13:22:22;101293.72;;;18.22;35.45
73860;BME280;62197;51.632;13.700;2023-02-15T13:24:54;101297.41;;;19.04;34.27
73860;BME280;62197;51.632;13.700;2023-02-15T13:27:23;101283.97;;;18.91;35.28
73860;BME280;62197;51.632;13.700;2023-02-15T13:29:51;101288.69;;;18.19;36.17
73860;BME280;62197;51.632;13.700;2023-02-15T13:32:37;101287.34;;;19.13;33.91
73860;BME280;62197;51.632;13.700;2023-02-15T13:35:04;101279.78;;;19.29;34.35
73860;BME280;62197;51.632;13.700;2023-02-15T13:37:54;101216.00;;;19.36;32.59
73860;BME280;62197;51.632;13.700;2023-02-15T13:40:33;101280.09;;;19.62;34.03
73860;BME280;62197;51.632;13.700;2023-02-15T13:43:22;101282.84;;;19.83;33.11
73860;BME280;62197;51.632;13.700;2023-02-15T13:46:04;101260.78;;;19.46;33.29
73860;BME280;62197;51.632;13.700;2023-02-15T13:59:24;101274.19;;;19.14;34.79
73860;BME280;62197;51.632;13.700;2023-02-15T14:01:55;101275.28;;;18.92;34.82
73860;BME280;62197;51.632;13.700;2023-02-15T14:04:43;101256.81;;;19.07;34.56
73860;BME280;62197;51.632;13.700;2023-02-15T14:28:55;101253.34;;;15.74;39.82
73860;BME280;62197;51.632;13.700;2023-02-15T14:31:34;101256.53;;;13.87;45.34